Etusivu
METAR-TAF:

METAR-TAF

Lentoasemat :

Riohacha, Kolumbia

Leveyspiiri: 11-32N, Pituuspiiri: 072-56W, korkeus merenpinnasta: 4 m

Tämänhetkinen sää

Tämä raportti tehtiin 35 minuuttia sitten, kello 20.00 UTC
Tuuli 12 kn idästä, vaihdellen idän/koillisen ja kaakon välillä
Lämpötila 36°C
Kosteus 47%
Ilmanpaine 1008 hPa
Näkyvyys 10 km tai enemmän
Muutamia pilviä 1800 ft:n korkeudessa

METAR: SKRH 212000Z 10012KT 070V130 9999 FEW018 36/23 Q1008

Aika: 15:35 (20:35 UTC)


TAF: puuttuu

Säähavainnot ja -ennusteet yli 4000 lentoasemalta (METAR- ja TAF-raportit).

Käytössä olevat sääasemat on merkitty karttaan keltaisilla ja punaisilla pisteillä.

Aseta hiiri pisteen päälle nähdäksesi sääaseman nimen.

Klikkaa sitten nähdäksesi säähavainnot ja -ennusteet.

Kartan vaihtaminen: klikkaa mustalla rastilla varustettuja vihreitä pisteitä, niin voit zoomata sisään; viivalla varustettua vihreää pistettä, niin voit zoomata ulos tai vihreitä nuolia, niin pääset viereisille kartoille.


METAR-TAF: